sensor_id;sensor_type;location;lat;lon;timestamp;P1;durP1;ratioP1;P2;durP2;ratioP2
16669;SDS011;8448;52.034;5.158;2023-05-10T00:02:10;52.00;;;28.83;;
16669;SDS011;8448;52.034;5.158;2023-05-10T00:04:38;51.73;;;28.93;;
16669;SDS011;8448;52.034;5.158;2023-05-10T00:07:06;53.80;;;29.27;;
16669;SDS011;8448;52.034;5.158;2023-05-10T00:09:35;54.77;;;29.60;;
16669;SDS011;8448;52.034;5.158;2023-05-10T00:12:02;56.53;;;31.00;;
16669;SDS011;8448;52.034;5.158;2023-05-10T00:14:30;51.93;;;29.30;;
16669;SDS011;8448;52.034;5.158;2023-05-10T00:16:57;55.33;;;30.23;;
16669;SDS011;8448;52.034;5.158;2023-05-10T00:19:24;55.40;;;30.57;;
16669;SDS011;8448;52.034;5.158;2023-05-10T00:21:52;63.07;;;31.30;;
16669;SDS011;8448;52.034;5.158;2023-05-10T00:24:20;58.90;;;30.23;;
16669;SDS011;8448;52.034;5.158;2023-05-10T00:26:48;54.73;;;28.97;;
16669;SDS011;8448;52.034;5.158;2023-05-10T00:29:15;61.97;;;30.17;;
16669;SDS011;8448;52.034;5.158;2023-05-10T00:31:42;62.03;;;30.70;;
16669;SDS011;8448;52.034;5.158;2023-05-10T00:34:10;57.60;;;29.10;;
16669;SDS011;8448;52.034;5.158;2023-05-10T00:36:37;57.00;;;29.57;;
16669;SDS011;8448;52.034;5.158;2023-05-10T00:39:06;57.27;;;29.67;;
16669;SDS011;8448;52.034;5.158;2023-05-10T00:41:34;59.57;;;29.87;;
16669;SDS011;8448;52.034;5.158;2023-05-10T00:44:04;63.97;;;30.87;;
16669;SDS011;8448;52.034;5.158;2023-05-10T00:46:31;55.77;;;28.77;;
16669;SDS011;8448;52.034;5.158;2023-05-10T00:48:59;61.80;;;30.27;;
16669;SDS011;8448;52.034;5.158;2023-05-10T00:51:26;60.00;;;29.00;;
16669;SDS011;8448;52.034;5.158;2023-05-10T00:53:53;58.77;;;28.97;;
16669;SDS011;8448;52.034;5.158;2023-05-10T00:56:21;58.77;;;29.17;;
16669;SDS011;8448;52.034;5.158;2023-05-10T00:58:51;59.27;;;28.67;;
16669;SDS011;8448;52.034;5.158;2023-05-10T01:01:18;60.63;;;29.40;;
16669;SDS011;8448;52.034;5.158;2023-05-10T01:03:46;60.47;;;28.43;;
16669;SDS011;8448;52.034;5.158;2023-05-10T01:06:14;57.00;;;27.27;;
16669;SDS011;8448;52.034;5.158;2023-05-10T01:08:41;63.43;;;29.63;;
16669;SDS011;8448;52.034;5.158;2023-05-10T01:11:09;67.00;;;30.50;;
16669;SDS011;8448;52.034;5.158;2023-05-10T01:13:37;65.67;;;30.70;;
16669;SDS011;8448;52.034;5.158;2023-05-10T01:16:07;64.53;;;30.73;;
16669;SDS011;8448;52.034;5.158;2023-05-10T01:18:35;70.43;;;30.90;;
16669;SDS011;8448;52.034;5.158;2023-05-10T01:21:07;64.17;;;30.90;;
16669;SDS011;8448;52.034;5.158;2023-05-10T01:23:45;59.97;;;29.00;;
16669;SDS011;8448;52.034;5.158;2023-05-10T01:26:53;67.30;;;31.20;;
16669;SDS011;8448;52.034;5.158;2023-05-10T01:29:59;63.23;;;31.17;;
16669;SDS011;8448;52.034;5.158;2023-05-10T01:32:35;63.77;;;30.57;;
16669;SDS011;8448;52.034;5.158;2023-05-10T01:35:06;65.63;;;31.83;;
16669;SDS011;8448;52.034;5.158;2023-05-10T01:37:41;69.13;;;30.97;;
16669;SDS011;8448;52.034;5.158;2023-05-10T01:40:13;70.83;;;31.30;;
16669;SDS011;8448;52.034;5.158;2023-05-10T01:42:46;79.83;;;32.33;;
16669;SDS011;8448;52.034;5.158;2023-05-10T01:45:20;74.67;;;33.33;;
16669;SDS011;8448;52.034;5.158;2023-05-10T01:47:55;79.63;;;34.33;;
16669;SDS011;8448;52.034;5.158;2023-05-10T01:50:31;81.03;;;34.30;;
16669;SDS011;8448;52.034;5.158;2023-05-10T01:53:00;74.37;;;34.03;;
16669;SDS011;8448;52.034;5.158;2023-05-10T01:55:29;80.23;;;36.63;;
16669;SDS011;8448;52.034;5.158;2023-05-10T01:58:00;89.00;;;37.33;;
16669;SDS011;8448;52.034;5.158;2023-05-10T02:00:30;84.77;;;37.03;;
16669;SDS011;8448;52.034;5.158;2023-05-10T02:02:59;88.70;;;37.47;;
16669;SDS011;8448;52.034;5.158;2023-05-10T02:05:28;87.23;;;37.60;;
16669;SDS011;8448;52.034;5.158;2023-05-10T02:07:57;95.77;;;39.13;;
16669;SDS011;8448;52.034;5.158;2023-05-10T02:10:25;97.50;;;39.43;;
16669;SDS011;8448;52.034;5.158;2023-05-10T02:12:53;92.97;;;38.33;;
16669;SDS011;8448;52.034;5.158;2023-05-10T02:15:22;93.77;;;37.57;;
16669;SDS011;8448;52.034;5.158;2023-05-10T02:17:50;90.63;;;38.87;;
16669;SDS011;8448;52.034;5.158;2023-05-10T02:20:22;96.57;;;39.10;;
16669;SDS011;8448;52.034;5.158;2023-05-10T02:22:50;92.00;;;39.87;;
16669;SDS011;8448;52.034;5.158;2023-05-10T02:25:19;91.50;;;39.13;;
16669;SDS011;8448;52.034;5.158;2023-05-10T02:27:48;99.50;;;39.97;;
16669;SDS011;8448;52.034;5.158;2023-05-10T02:30:16;96.47;;;40.53;;
16669;SDS011;8448;52.034;5.158;2023-05-10T02:32:44;93.33;;;38.87;;
16669;SDS011;8448;52.034;5.158;2023-05-10T02:35:12;80.30;;;36.77;;
16669;SDS011;8448;52.034;5.158;2023-05-10T02:37:41;82.53;;;35.83;;
16669;SDS011;8448;52.034;5.158;2023-05-10T02:40:10;79.83;;;36.73;;
16669;SDS011;8448;52.034;5.158;2023-05-10T02:42:38;94.00;;;44.20;;
16669;SDS011;8448;52.034;5.158;2023-05-10T02:45:10;82.73;;;37.10;;
16669;SDS011;8448;52.034;5.158;2023-05-10T02:47:38;74.53;;;35.23;;
16669;SDS011;8448;52.034;5.158;2023-05-10T02:50:06;74.67;;;34.20;;
16669;SDS011;8448;52.034;5.158;2023-05-10T02:52:36;78.07;;;35.70;;
16669;SDS011;8448;52.034;5.158;2023-05-10T02:55:08;72.70;;;33.37;;
16669;SDS011;8448;52.034;5.158;2023-05-10T02:57:38;74.37;;;34.07;;
16669;SDS011;8448;52.034;5.158;2023-05-10T03:00:10;70.40;;;32.40;;
16669;SDS011;8448;52.034;5.158;2023-05-10T03:02:37;78.33;;;33.07;;
16669;SDS011;8448;52.034;5.158;2023-05-10T03:05:05;75.83;;;33.97;;
16669;SDS011;8448;52.034;5.158;2023-05-10T03:07:33;82.93;;;34.10;;
16669;SDS011;8448;52.034;5.158;2023-05-10T03:10:01;76.77;;;33.30;;
16669;SDS011;8448;52.034;5.158;2023-05-10T03:12:33;75.77;;;33.87;;
16669;SDS011;8448;52.034;5.158;2023-05-10T03:15:10;74.20;;;33.23;;
16669;SDS011;8448;52.034;5.158;2023-05-10T03:17:41;73.03;;;33.00;;
16669;SDS011;8448;52.034;5.158;2023-05-10T03:20:16;77.10;;;33.93;;
16669;SDS011;8448;52.034;5.158;2023-05-10T03:22:50;70.80;;;31.67;;
16669;SDS011;8448;52.034;5.158;2023-05-10T03:25:19;78.30;;;33.50;;
16669;SDS011;8448;52.034;5.158;2023-05-10T03:27:50;68.20;;;32.43;;
16669;SDS011;8448;52.034;5.158;2023-05-10T03:30:19;70.93;;;31.77;;
16669;SDS011;8448;52.034;5.158;2023-05-10T03:32:46;68.80;;;31.73;;
16669;SDS011;8448;52.034;5.158;2023-05-10T03:35:16;81.37;;;31.93;;
16669;SDS011;8448;52.034;5.158;2023-05-10T03:37:43;78.47;;;31.13;;
16669;SDS011;8448;52.034;5.158;2023-05-10T03:40:11;72.73;;;32.13;;
16669;SDS011;8448;52.034;5.158;2023-05-10T03:42:40;78.83;;;32.57;;
16669;SDS011;8448;52.034;5.158;2023-05-10T03:45:10;88.87;;;34.97;;
16669;SDS011;8448;52.034;5.158;2023-05-10T03:47:37;95.23;;;35.00;;
16669;SDS011;8448;52.034;5.158;2023-05-10T03:50:06;88.40;;;33.87;;
16669;SDS011;8448;52.034;5.158;2023-05-10T03:52:35;92.40;;;35.90;;
16669;SDS011;8448;52.034;5.158;2023-05-10T03:55:04;89.87;;;34.63;;
16669;SDS011;8448;52.034;5.158;2023-05-10T03:57:32;93.47;;;34.47;;
16669;SDS011;8448;52.034;5.158;2023-05-10T04:00:00;104.07;;;35.07;;
16669;SDS011;8448;52.034;5.158;2023-05-10T04:02:40;94.57;;;36.27;;
16669;SDS011;8448;52.034;5.158;2023-05-10T04:05:12;91.73;;;36.60;;
16669;SDS011;8448;52.034;5.158;2023-05-10T04:07:40;97.50;;;38.60;;
16669;SDS011;8448;52.034;5.158;2023-05-10T04:10:10;91.40;;;36.07;;
16669;SDS011;8448;52.034;5.158;2023-05-10T04:12:37;102.57;;;37.93;;
16669;SDS011;8448;52.034;5.158;2023-05-10T04:15:05;95.27;;;37.30;;
16669;SDS011;8448;52.034;5.158;2023-05-10T04:17:33;90.73;;;37.67;;
16669;SDS011;8448;52.034;5.158;2023-05-10T04:20:01;93.43;;;38.50;;
16669;SDS011;8448;52.034;5.158;2023-05-10T04:22:29;93.43;;;38.80;;
16669;SDS011;8448;52.034;5.158;2023-05-10T04:24:58;100.13;;;40.27;;
16669;SDS011;8448;52.034;5.158;2023-05-10T04:27:25;96.83;;;39.77;;
16669;SDS011;8448;52.034;5.158;2023-05-10T04:29:52;102.90;;;41.13;;
16669;SDS011;8448;52.034;5.158;2023-05-10T04:32:19;107.80;;;41.67;;
16669;SDS011;8448;52.034;5.158;2023-05-10T04:34:47;99.27;;;42.17;;
16669;SDS011;8448;52.034;5.158;2023-05-10T04:37:17;91.37;;;38.73;;
16669;SDS011;8448;52.034;5.158;2023-05-10T04:39:44;103.83;;;41.50;;
16669;SDS011;8448;52.034;5.158;2023-05-10T04:42:12;106.70;;;41.57;;
16669;SDS011;8448;52.034;5.158;2023-05-10T04:44:40;107.60;;;42.77;;
16669;SDS011;8448;52.034;5.158;2023-05-10T04:47:07;98.20;;;40.00;;
16669;SDS011;8448;52.034;5.158;2023-05-10T04:49:35;110.83;;;41.60;;
16669;SDS011;8448;52.034;5.158;2023-05-10T04:52:02;105.07;;;42.10;;
16669;SDS011;8448;52.034;5.158;2023-05-10T04:54:31;103.20;;;43.03;;
16669;SDS011;8448;52.034;5.158;2023-05-10T04:56:58;98.73;;;41.03;;
16669;SDS011;8448;52.034;5.158;2023-05-10T04:59:25;98.63;;;41.50;;
16669;SDS011;8448;52.034;5.158;2023-05-10T05:01:53;103.17;;;42.53;;
16669;SDS011;8448;52.034;5.158;2023-05-10T05:04:20;91.73;;;40.93;;
16669;SDS011;8448;52.034;5.158;2023-05-10T05:06:48;97.63;;;42.77;;
16669;SDS011;8448;52.034;5.158;2023-05-10T05:09:15;88.57;;;39.67;;
16669;SDS011;8448;52.034;5.158;2023-05-10T05:11:44;88.33;;;40.73;;
16669;SDS011;8448;52.034;5.158;2023-05-10T05:14:11;83.33;;;39.73;;
16669;SDS011;8448;52.034;5.158;2023-05-10T05:16:39;89.70;;;40.60;;
16669;SDS011;8448;52.034;5.158;2023-05-10T05:19:06;83.53;;;40.40;;
16669;SDS011;8448;52.034;5.158;2023-05-10T05:21:33;84.93;;;40.87;;
16669;SDS011;8448;52.034;5.158;2023-05-10T05:24:00;78.60;;;39.37;;
16669;SDS011;8448;52.034;5.158;2023-05-10T05:26:28;69.30;;;37.33;;
16669;SDS011;8448;52.034;5.158;2023-05-10T05:28:57;75.47;;;38.70;;
16669;SDS011;8448;52.034;5.158;2023-05-10T05:31:24;76.37;;;38.97;;
16669;SDS011;8448;52.034;5.158;2023-05-10T05:33:51;72.10;;;38.80;;
16669;SDS011;8448;52.034;5.158;2023-05-10T05:36:19;79.40;;;41.83;;
16669;SDS011;8448;52.034;5.158;2023-05-10T05:38:46;82.27;;;41.30;;
16669;SDS011;8448;52.034;5.158;2023-05-10T05:41:13;81.53;;;41.10;;
16669;SDS011;8448;52.034;5.158;2023-05-10T05:43:41;85.40;;;42.83;;
16669;SDS011;8448;52.034;5.158;2023-05-10T05:46:09;79.97;;;39.67;;
16669;SDS011;8448;52.034;5.158;2023-05-10T05:48:37;86.87;;;41.80;;
16669;SDS011;8448;52.034;5.158;2023-05-10T05:51:04;86.00;;;40.20;;
16669;SDS011;8448;52.034;5.158;2023-05-10T05:53:31;85.03;;;40.90;;
16669;SDS011;8448;52.034;5.158;2023-05-10T05:55:59;78.20;;;38.23;;
16669;SDS011;8448;52.034;5.158;2023-05-10T05:58:26;82.03;;;39.70;;
16669;SDS011;8448;52.034;5.158;2023-05-10T06:00:54;79.43;;;39.27;;
16669;SDS011;8448;52.034;5.158;2023-05-10T06:03:22;74.50;;;37.33;;
16669;SDS011;8448;52.034;5.158;2023-05-10T06:05:50;91.60;;;38.43;;
16669;SDS011;8448;52.034;5.158;2023-05-10T06:08:17;78.83;;;35.93;;
16669;SDS011;8448;52.034;5.158;2023-05-10T06:10:45;72.73;;;33.87;;
16669;SDS011;8448;52.034;5.158;2023-05-10T06:13:12;79.27;;;34.07;;
16669;SDS011;8448;52.034;5.158;2023-05-10T06:15:40;67.90;;;32.17;;
16669;SDS011;8448;52.034;5.158;2023-05-10T06:18:07;65.43;;;31.00;;
16669;SDS011;8448;52.034;5.158;2023-05-10T06:20:36;62.93;;;29.77;;
16669;SDS011;8448;52.034;5.158;2023-05-10T06:23:03;63.23;;;28.93;;
16669;SDS011;8448;52.034;5.158;2023-05-10T06:25:31;52.43;;;26.83;;
16669;SDS011;8448;52.034;5.158;2023-05-10T06:27:58;46.30;;;24.63;;
16669;SDS011;8448;52.034;5.158;2023-05-10T06:30:26;38.07;;;21.20;;
16669;SDS011;8448;52.034;5.158;2023-05-10T06:32:54;37.40;;;19.57;;
16669;SDS011;8448;52.034;5.158;2023-05-10T06:35:21;35.77;;;19.97;;
16669;SDS011;8448;52.034;5.158;2023-05-10T06:37:50;33.47;;;18.93;;
16669;SDS011;8448;52.034;5.158;2023-05-10T06:40:18;34.50;;;18.20;;
16669;SDS011;8448;52.034;5.158;2023-05-10T06:42:45;30.50;;;17.43;;
16669;SDS011;8448;52.034;5.158;2023-05-10T06:45:13;30.17;;;16.50;;
16669;SDS011;8448;52.034;5.158;2023-05-10T06:47:41;26.43;;;15.07;;
16669;SDS011;8448;52.034;5.158;2023-05-10T06:50:08;26.40;;;14.90;;
16669;SDS011;8448;52.034;5.158;2023-05-10T06:52:37;23.60;;;13.80;;
16669;SDS011;8448;52.034;5.158;2023-05-10T06:55:06;23.27;;;14.23;;
16669;SDS011;8448;52.034;5.158;2023-05-10T06:57:34;22.10;;;14.37;;
16669;SDS011;8448;52.034;5.158;2023-05-10T07:00:02;21.37;;;12.60;;
16669;SDS011;8448;52.034;5.158;2023-05-10T07:02:30;21.03;;;12.40;;
16669;SDS011;8448;52.034;5.158;2023-05-10T07:04:57;19.90;;;12.00;;
16669;SDS011;8448;52.034;5.158;2023-05-10T07:07:24;19.07;;;12.03;;
16669;SDS011;8448;52.034;5.158;2023-05-10T07:09:52;20.20;;;11.10;;
16669;SDS011;8448;52.034;5.158;2023-05-10T07:12:21;18.80;;;11.13;;
16669;SDS011;8448;52.034;5.158;2023-05-10T07:14:48;16.23;;;10.20;;
16669;SDS011;8448;52.034;5.158;2023-05-10T07:17:15;16.07;;;10.33;;
16669;SDS011;8448;52.034;5.158;2023-05-10T07:19:43;15.13;;;10.00;;
16669;SDS011;8448;52.034;5.158;2023-05-10T07:22:10;17.13;;;10.77;;
16669;SDS011;8448;52.034;5.158;2023-05-10T07:24:38;14.87;;;9.77;;
16669;SDS011;8448;52.034;5.158;2023-05-10T07:27:05;14.50;;;9.43;;
16669;SDS011;8448;52.034;5.158;2023-05-10T07:29:34;15.47;;;9.57;;
16669;SDS011;8448;52.034;5.158;2023-05-10T07:32:02;14.53;;;9.73;;
16669;SDS011;8448;52.034;5.158;2023-05-10T07:34:29;14.80;;;9.13;;
16669;SDS011;8448;52.034;5.158;2023-05-10T07:36:57;19.67;;;10.93;;
16669;SDS011;8448;52.034;5.158;2023-05-10T07:39:25;16.93;;;11.17;;
16669;SDS011;8448;52.034;5.158;2023-05-10T07:41:52;17.50;;;10.70;;
16669;SDS011;8448;52.034;5.158;2023-05-10T07:44:20;16.37;;;10.47;;
16669;SDS011;8448;52.034;5.158;2023-05-10T07:46:48;19.13;;;11.07;;
16669;SDS011;8448;52.034;5.158;2023-05-10T07:49:16;19.73;;;11.47;;
16669;SDS011;8448;52.034;5.158;2023-05-10T07:51:43;19.67;;;11.43;;
16669;SDS011;8448;52.034;5.158;2023-05-10T07:54:10;18.20;;;11.27;;
16669;SDS011;8448;52.034;5.158;2023-05-10T07:56:38;19.37;;;11.93;;
16669;SDS011;8448;52.034;5.158;2023-05-10T07:59:14;17.70;;;10.60;;
16669;SDS011;8448;52.034;5.158;2023-05-10T08:01:42;15.00;;;10.07;;
16669;SDS011;8448;52.034;5.158;2023-05-10T08:04:11;18.00;;;10.97;;
16669;SDS011;8448;52.034;5.158;2023-05-10T08:06:38;16.10;;;10.03;;
16669;SDS011;8448;52.034;5.158;2023-05-10T08:09:06;15.40;;;10.00;;
16669;SDS011;8448;52.034;5.158;2023-05-10T08:11:34;15.70;;;10.23;;
16669;SDS011;8448;52.034;5.158;2023-05-10T08:14:01;15.77;;;10.67;;
16669;SDS011;8448;52.034;5.158;2023-05-10T08:16:28;13.43;;;9.30;;
16669;SDS011;8448;52.034;5.158;2023-05-10T08:18:55;17.53;;;10.43;;
16669;SDS011;8448;52.034;5.158;2023-05-10T08:21:24;16.00;;;10.20;;
16669;SDS011;8448;52.034;5.158;2023-05-10T08:23:52;16.33;;;9.57;;
16669;SDS011;8448;52.034;5.158;2023-05-10T08:26:19;15.13;;;9.93;;
16669;SDS011;8448;52.034;5.158;2023-05-10T08:28:47;12.50;;;9.03;;
16669;SDS011;8448;52.034;5.158;2023-05-10T08:31:14;14.53;;;9.30;;
16669;SDS011;8448;52.034;5.158;2023-05-10T08:33:43;13.20;;;9.00;;
16669;SDS011;8448;52.034;5.158;2023-05-10T08:36:10;12.33;;;8.40;;
16669;SDS011;8448;52.034;5.158;2023-05-10T08:38:46;14.37;;;9.13;;
16669;SDS011;8448;52.034;5.158;2023-05-10T08:41:13;11.18;;;7.85;;
16669;SDS011;8448;52.034;5.158;2023-05-10T08:43:40;14.00;;;8.57;;
16669;SDS011;8448;52.034;5.158;2023-05-10T08:46:11;12.43;;;8.10;;
16669;SDS011;8448;52.034;5.158;2023-05-10T08:48:41;11.75;;;8.20;;
16669;SDS011;8448;52.034;5.158;2023-05-10T08:51:10;13.53;;;7.53;;
16669;SDS011;8448;52.034;5.158;2023-05-10T08:53:41;11.13;;;7.83;;
16669;SDS011;8448;52.034;5.158;2023-05-10T08:56:10;12.03;;;7.93;;
16669;SDS011;8448;52.034;5.158;2023-05-10T08:58:38;10.90;;;7.33;;
16669;SDS011;8448;52.034;5.158;2023-05-10T09:01:05;9.93;;;7.00;;
16669;SDS011;8448;52.034;5.158;2023-05-10T09:03:33;10.97;;;7.37;;
16669;SDS011;8448;52.034;5.158;2023-05-10T09:06:00;12.82;;;7.90;;
16669;SDS011;8448;52.034;5.158;2023-05-10T09:08:28;10.33;;;7.13;;
16669;SDS011;8448;52.034;5.158;2023-05-10T09:10:56;11.73;;;7.63;;
16669;SDS011;8448;52.034;5.158;2023-05-10T09:13:25;10.05;;;6.65;;
16669;SDS011;8448;52.034;5.158;2023-05-10T09:15:52;10.20;;;6.18;;
16669;SDS011;8448;52.034;5.158;2023-05-10T09:18:19;8.75;;;6.10;;
16669;SDS011;8448;52.034;5.158;2023-05-10T09:20:48;8.80;;;6.00;;
16669;SDS011;8448;52.034;5.158;2023-05-10T09:23:15;7.78;;;5.22;;
16669;SDS011;8448;52.034;5.158;2023-05-10T09:25:42;7.70;;;5.47;;
16669;SDS011;8448;52.034;5.158;2023-05-10T09:28:10;7.30;;;5.05;;
16669;SDS011;8448;52.034;5.158;2023-05-10T09:30:39;7.18;;;5.20;;
16669;SDS011;8448;52.034;5.158;2023-05-10T09:33:07;6.28;;;5.07;;
16669;SDS011;8448;52.034;5.158;2023-05-10T09:35:35;7.47;;;5.60;;
16669;SDS011;8448;52.034;5.158;2023-05-10T09:38:05;5.38;;;4.45;;
16669;SDS011;8448;52.034;5.158;2023-05-10T09:40:32;6.45;;;5.07;;
16669;SDS011;8448;52.034;5.158;2023-05-10T09:43:00;8.23;;;5.25;;
16669;SDS011;8448;52.034;5.158;2023-05-10T09:45:29;8.38;;;5.30;;
16669;SDS011;8448;52.034;5.158;2023-05-10T09:47:58;8.05;;;5.68;;
16669;SDS011;8448;52.034;5.158;2023-05-10T09:50:26;7.65;;;5.32;;
16669;SDS011;8448;52.034;5.158;2023-05-10T09:52:55;7.15;;;5.10;;
16669;SDS011;8448;52.034;5.158;2023-05-10T09:55:24;8.25;;;5.25;;
16669;SDS011;8448;52.034;5.158;2023-05-10T09:57:58;7.45;;;4.90;;
16669;SDS011;8448;52.034;5.158;2023-05-10T10:00:26;8.73;;;5.32;;
16669;SDS011;8448;52.034;5.158;2023-05-10T10:02:54;7.43;;;4.72;;
16669;SDS011;8448;52.034;5.158;2023-05-10T10:05:28;6.10;;;4.97;;
16669;SDS011;8448;52.034;5.158;2023-05-10T10:07:57;9.05;;;5.30;;
16669;SDS011;8448;52.034;5.158;2023-05-10T10:10:25;7.35;;;4.90;;
16669;SDS011;8448;52.034;5.158;2023-05-10T10:12:52;6.38;;;4.90;;
16669;SDS011;8448;52.034;5.158;2023-05-10T10:15:20;7.63;;;5.55;;
16669;SDS011;8448;52.034;5.158;2023-05-10T10:17:48;6.68;;;5.00;;
16669;SDS011;8448;52.034;5.158;2023-05-10T10:20:17;7.43;;;5.72;;
16669;SDS011;8448;52.034;5.158;2023-05-10T10:22:47;7.25;;;5.53;;
16669;SDS011;8448;52.034;5.158;2023-05-10T10:25:15;7.90;;;5.53;;
16669;SDS011;8448;52.034;5.158;2023-05-10T10:27:45;7.00;;;5.50;;
16669;SDS011;8448;52.034;5.158;2023-05-10T10:30:27;10.50;;;5.20;;
16669;SDS011;8448;52.034;5.158;2023-05-10T10:33:18;8.35;;;5.18;;
16669;SDS011;8448;52.034;5.158;2023-05-10T10:36:15;6.15;;;4.78;;
16669;SDS011;8448;52.034;5.158;2023-05-10T10:38:57;6.35;;;5.07;;
16669;SDS011;8448;52.034;5.158;2023-05-10T10:41:30;6.90;;;5.18;;
16669;SDS011;8448;52.034;5.158;2023-05-10T10:47:07;8.13;;;5.78;;
16669;SDS011;8448;52.034;5.158;2023-05-10T10:50:01;10.30;;;5.18;;
16669;SDS011;8448;52.034;5.158;2023-05-10T10:52:30;7.55;;;5.60;;
16669;SDS011;8448;52.034;5.158;2023-05-10T10:55:01;6.75;;;5.20;;
16669;SDS011;8448;52.034;5.158;2023-05-10T10:57:33;9.15;;;5.93;;
16669;SDS011;8448;52.034;5.158;2023-05-10T11:00:25;8.38;;;5.63;;
16669;SDS011;8448;52.034;5.158;2023-05-10T11:02:55;7.22;;;5.28;;
16669;SDS011;8448;52.034;5.158;2023-05-10T11:08:13;8.63;;;5.82;;
16669;SDS011;8448;52.034;5.158;2023-05-10T12:06:45;8.73;;;6.30;;
16669;SDS011;8448;52.034;5.158;2023-05-10T12:09:12;7.00;;;6.35;;
16669;SDS011;8448;52.034;5.158;2023-05-10T12:46:06;11.88;;;7.88;;
16669;SDS011;8448;52.034;5.158;2023-05-10T12:48:45;13.60;;;8.00;;
16669;SDS011;8448;52.034;5.158;2023-05-10T12:51:18;11.55;;;8.05;;
16669;SDS011;8448;52.034;5.158;2023-05-10T12:53:47;14.90;;;9.32;;
16669;SDS011;8448;52.034;5.158;2023-05-10T12:56:15;14.02;;;8.88;;
16669;SDS011;8448;52.034;5.158;2023-05-10T12:58:47;11.32;;;7.88;;
16669;SDS011;8448;52.034;5.158;2023-05-10T13:01:16;11.27;;;7.65;;
16669;SDS011;8448;52.034;5.158;2023-05-10T13:03:43;12.65;;;7.82;;
16669;SDS011;8448;52.034;5.158;2023-05-10T13:06:10;18.50;;;8.85;;
16669;SDS011;8448;52.034;5.158;2023-05-10T13:08:39;14.70;;;9.85;;
16669;SDS011;8448;52.034;5.158;2023-05-10T13:11:06;14.90;;;9.55;;
16669;SDS011;8448;52.034;5.158;2023-05-10T13:13:34;12.55;;;7.70;;
16669;SDS011;8448;52.034;5.158;2023-05-10T13:16:05;13.02;;;8.40;;
16669;SDS011;8448;52.034;5.158;2023-05-10T13:18:34;12.65;;;7.15;;
16669;SDS011;8448;52.034;5.158;2023-05-10T13:21:01;12.48;;;8.07;;
16669;SDS011;8448;52.034;5.158;2023-05-10T13:23:30;13.73;;;8.27;;
16669;SDS011;8448;52.034;5.158;2023-05-10T13:25:57;14.88;;;9.15;;
16669;SDS011;8448;52.034;5.158;2023-05-10T13:28:25;14.52;;;8.55;;
16669;SDS011;8448;52.034;5.158;2023-05-10T13:30:52;12.88;;;8.65;;
16669;SDS011;8448;52.034;5.158;2023-05-10T13:33:20;13.90;;;8.88;;
16669;SDS011;8448;52.034;5.158;2023-05-10T13:35:48;15.07;;;9.07;;
16669;SDS011;8448;52.034;5.158;2023-05-10T13:38:16;14.40;;;9.65;;
16669;SDS011;8448;52.034;5.158;2023-05-10T13:40:43;13.80;;;9.32;;
16669;SDS011;8448;52.034;5.158;2023-05-10T13:43:10;13.45;;;8.93;;
16669;SDS011;8448;52.034;5.158;2023-05-10T13:45:38;13.75;;;8.90;;
16669;SDS011;8448;52.034;5.158;2023-05-10T13:48:05;13.63;;;7.90;;
16669;SDS011;8448;52.034;5.158;2023-05-10T13:50:32;11.05;;;7.85;;
16669;SDS011;8448;52.034;5.158;2023-05-10T13:53:01;10.85;;;7.70;;
16669;SDS011;8448;52.034;5.158;2023-05-10T13:55:28;11.85;;;7.38;;
16669;SDS011;8448;52.034;5.158;2023-05-10T13:57:56;11.32;;;7.63;;
16669;SDS011;8448;52.034;5.158;2023-05-10T14:00:23;11.43;;;8.13;;
16669;SDS011;8448;52.034;5.158;2023-05-10T14:02:50;13.00;;;9.15;;
16669;SDS011;8448;52.034;5.158;2023-05-10T14:05:18;12.18;;;8.30;;
16669;SDS011;8448;52.034;5.158;2023-05-10T14:07:45;13.00;;;8.50;;
16669;SDS011;8448;52.034;5.158;2023-05-10T14:10:14;12.98;;;8.48;;
16669;SDS011;8448;52.034;5.158;2023-05-10T14:12:41;13.73;;;8.18;;
16669;SDS011;8448;52.034;5.158;2023-05-10T14:15:09;14.18;;;9.05;;
16669;SDS011;8448;52.034;5.158;2023-05-10T14:17:37;12.27;;;8.55;;
16669;SDS011;8448;52.034;5.158;2023-05-10T14:20:04;12.55;;;8.95;;
16669;SDS011;8448;52.034;5.158;2023-05-10T14:22:33;13.25;;;9.35;;
16669;SDS011;8448;52.034;5.158;2023-05-10T14:25:00;12.63;;;8.20;;
16669;SDS011;8448;52.034;5.158;2023-05-10T14:27:29;14.40;;;9.18;;
16669;SDS011;8448;52.034;5.158;2023-05-10T14:29:57;13.52;;;8.40;;
16669;SDS011;8448;52.034;5.158;2023-05-10T14:32:25;12.15;;;8.35;;
16669;SDS011;8448;52.034;5.158;2023-05-10T14:34:52;13.70;;;8.65;;
16669;SDS011;8448;52.034;5.158;2023-05-10T14:37:20;10.85;;;7.88;;
16669;SDS011;8448;52.034;5.158;2023-05-10T14:39:48;10.65;;;7.40;;
16669;SDS011;8448;52.034;5.158;2023-05-10T14:42:15;10.98;;;7.65;;
16669;SDS011;8448;52.034;5.158;2023-05-10T14:44:44;10.88;;;7.97;;
16669;SDS011;8448;52.034;5.158;2023-05-10T14:47:11;10.50;;;7.93;;
16669;SDS011;8448;52.034;5.158;2023-05-10T14:49:39;11.77;;;8.02;;
16669;SDS011;8448;52.034;5.158;2023-05-10T14:52:06;10.50;;;7.47;;
16669;SDS011;8448;52.034;5.158;2023-05-10T14:54:34;11.73;;;8.10;;
16669;SDS011;8448;52.034;5.158;2023-05-10T14:57:01;10.23;;;7.55;;
16669;SDS011;8448;52.034;5.158;2023-05-10T14:59:28;13.10;;;8.02;;
16669;SDS011;8448;52.034;5.158;2023-05-10T15:01:57;12.15;;;7.85;;
16669;SDS011;8448;52.034;5.158;2023-05-10T15:04:25;12.10;;;8.45;;
16669;SDS011;8448;52.034;5.158;2023-05-10T15:07:15;13.05;;;8.65;;
16669;SDS011;8448;52.034;5.158;2023-05-10T15:09:43;13.40;;;8.40;;
16669;SDS011;8448;52.034;5.158;2023-05-10T15:12:10;12.30;;;8.80;;
16669;SDS011;8448;52.034;5.158;2023-05-10T15:14:38;13.68;;;9.35;;
16669;SDS011;8448;52.034;5.158;2023-05-10T15:17:06;14.15;;;8.85;;
16669;SDS011;8448;52.034;5.158;2023-05-10T15:19:34;11.13;;;7.70;;
16669;SDS011;8448;52.034;5.158;2023-05-10T15:22:01;14.38;;;9.23;;
16669;SDS011;8448;52.034;5.158;2023-05-10T15:24:30;13.95;;;8.25;;
16669;SDS011;8448;52.034;5.158;2023-05-10T15:26:57;11.88;;;8.63;;
16669;SDS011;8448;52.034;5.158;2023-05-10T15:29:25;12.27;;;8.55;;
16669;SDS011;8448;52.034;5.158;2023-05-10T15:31:52;11.85;;;8.23;;
16669;SDS011;8448;52.034;5.158;2023-05-10T15:34:21;13.98;;;8.65;;
16669;SDS011;8448;52.034;5.158;2023-05-10T15:36:48;12.15;;;8.35;;
16669;SDS011;8448;52.034;5.158;2023-05-10T15:39:16;12.05;;;8.05;;
16669;SDS011;8448;52.034;5.158;2023-05-10T15:41:43;11.15;;;7.75;;
16669;SDS011;8448;52.034;5.158;2023-05-10T15:44:10;12.55;;;8.40;;
16669;SDS011;8448;52.034;5.158;2023-05-10T15:46:38;12.15;;;8.50;;
16669;SDS011;8448;52.034;5.158;2023-05-10T15:49:05;12.05;;;8.43;;
16669;SDS011;8448;52.034;5.158;2023-05-10T15:51:34;12.52;;;8.20;;
16669;SDS011;8448;52.034;5.158;2023-05-10T15:54:02;11.18;;;8.15;;
16669;SDS011;8448;52.034;5.158;2023-05-10T15:56:31;13.38;;;9.23;;
16669;SDS011;8448;52.034;5.158;2023-05-10T15:58:59;16.55;;;9.93;;
16669;SDS011;8448;52.034;5.158;2023-05-10T16:01:26;13.65;;;8.48;;
16669;SDS011;8448;52.034;5.158;2023-05-10T16:03:54;13.82;;;9.00;;
16669;SDS011;8448;52.034;5.158;2023-05-10T16:06:31;14.70;;;9.60;;
16669;SDS011;8448;52.034;5.158;2023-05-10T16:09:03;12.63;;;8.85;;
16669;SDS011;8448;52.034;5.158;2023-05-10T16:11:30;13.60;;;9.32;;
16669;SDS011;8448;52.034;5.158;2023-05-10T16:13:57;14.48;;;9.18;;
16669;SDS011;8448;52.034;5.158;2023-05-10T16:16:25;13.75;;;8.35;;
16669;SDS011;8448;52.034;5.158;2023-05-10T16:18:52;13.13;;;8.82;;
16669;SDS011;8448;52.034;5.158;2023-05-10T16:21:20;13.68;;;8.30;;
16669;SDS011;8448;52.034;5.158;2023-05-10T16:23:48;15.60;;;8.88;;
16669;SDS011;8448;52.034;5.158;2023-05-10T16:26:16;12.52;;;8.40;;
16669;SDS011;8448;52.034;5.158;2023-05-10T16:28:43;14.57;;;8.55;;